createdAt,value
2017-08-29T00:00:11.860Z,84.70
2017-08-29T00:02:39.575Z,83.70
2017-08-29T00:05:07.244Z,83.80
2017-08-29T00:07:34.952Z,84.40
2017-08-29T00:10:03.450Z,84.40
2017-08-29T00:12:31.162Z,84.30
2017-08-29T00:14:58.828Z,84.20
2017-08-29T00:17:26.539Z,84.50
2017-08-29T00:19:54.204Z,84.70
2017-08-29T00:22:21.920Z,84.90
2017-08-29T00:24:49.596Z,84.60
2017-08-29T00:27:17.305Z,84.30
2017-08-29T00:29:44.980Z,83.70
2017-08-29T00:32:12.712Z,83.90
2017-08-29T00:34:40.403Z,83.00
2017-08-29T00:37:08.208Z,83.00
2017-08-29T00:39:35.941Z,83.40
2017-08-29T00:42:03.684Z,84.20
2017-08-29T00:44:31.525Z,84.10
2017-08-29T00:46:59.257Z,83.70
2017-08-29T00:49:26.951Z,83.90
2017-08-29T00:51:54.668Z,83.50
2017-08-29T00:54:22.340Z,83.90
2017-08-29T00:56:50.115Z,84.60
2017-08-29T00:59:17.819Z,85.20
2017-08-29T01:01:45.547Z,84.50
2017-08-29T01:04:13.258Z,84.30
2017-08-29T01:06:40.943Z,84.80
2017-08-29T01:09:08.738Z,84.70
2017-08-29T01:11:36.465Z,85.90
2017-08-29T01:14:04.244Z,86.40
2017-08-29T01:16:31.934Z,87.30
2017-08-29T01:18:59.687Z,87.60
2017-08-29T01:21:27.403Z,88.50
2017-08-29T01:23:55.175Z,87.60
2017-08-29T01:26:23.672Z,86.90
2017-08-29T01:28:51.438Z,86.80
2017-08-29T01:31:19.172Z,86.90
2017-08-29T01:33:46.945Z,86.60
2017-08-29T01:36:14.671Z,86.40
2017-08-29T01:38:42.414Z,86.40
2017-08-29T01:41:10.137Z,86.20
2017-08-29T01:43:37.916Z,85.10
2017-08-29T01:46:05.642Z,84.80
2017-08-29T01:48:33.407Z,84.50
2017-08-29T01:51:01.134Z,84.90
2017-08-29T01:53:28.910Z,84.60
2017-08-29T01:55:56.636Z,83.90
2017-08-29T01:58:24.409Z,84.40
2017-08-29T02:00:52.146Z,84.60
2017-08-29T02:03:19.863Z,84.50
2017-08-29T02:05:47.611Z,84.80
2017-08-29T02:08:15.328Z,84.00
2017-08-29T02:10:43.091Z,84.00
2017-08-29T02:13:10.751Z,84.20
2017-08-29T02:15:38.451Z,83.90
2017-08-29T02:18:06.107Z,83.60
2017-08-29T02:20:33.810Z,84.60
2017-08-29T02:23:01.481Z,83.90
2017-08-29T02:25:29.181Z,83.60
2017-08-29T02:27:56.845Z,84.60
2017-08-29T02:30:24.554Z,86.50
2017-08-29T02:32:52.213Z,86.30
2017-08-29T02:35:19.954Z,85.80
2017-08-29T02:37:47.619Z,86.10
2017-08-29T02:40:15.311Z,86.00
2017-08-29T02:42:42.968Z,85.80
2017-08-29T02:45:10.667Z,85.00
2017-08-29T02:47:38.330Z,85.20
2017-08-29T02:50:06.027Z,85.40
2017-08-29T02:52:33.684Z,85.00
2017-08-29T02:55:01.399Z,84.60
2017-08-29T02:57:29.063Z,83.90
2017-08-29T02:59:56.782Z,83.70
2017-08-29T03:02:24.449Z,83.70
2017-08-29T03:04:52.161Z,84.00
2017-08-29T03:07:19.820Z,83.90
2017-08-29T03:09:47.529Z,84.00
2017-08-29T03:12:15.192Z,84.00
2017-08-29T03:14:42.902Z,84.30
2017-08-29T03:17:11.339Z,84.80
2017-08-29T03:19:39.045Z,84.60
2017-08-29T03:22:06.707Z,85.10
2017-08-29T03:24:34.463Z,84.90
2017-08-29T03:27:02.179Z,85.00
2017-08-29T03:29:29.838Z,85.10
2017-08-29T03:31:57.531Z,85.30
2017-08-29T03:34:25.193Z,85.10
2017-08-29T03:36:52.904Z,85.30
2017-08-29T03:39:20.564Z,85.50
2017-08-29T03:41:48.268Z,85.40
2017-08-29T03:44:16.022Z,85.50
2017-08-29T03:46:43.729Z,85.40
2017-08-29T03:49:11.383Z,85.60
2017-08-29T03:51:39.096Z,86.00
2017-08-29T03:54:06.766Z,85.80
2017-08-29T03:56:34.472Z,85.70
2017-08-29T03:59:02.130Z,86.10
2017-08-29T04:01:29.831Z,86.10
2017-08-29T04:03:57.496Z,86.60
2017-08-29T04:06:25.192Z,86.10
2017-08-29T04:08:52.860Z,86.40
2017-08-29T04:11:20.568Z,86.60
2017-08-29T04:13:48.238Z,86.00
2017-08-29T04:16:15.953Z,85.80
2017-08-29T04:18:43.618Z,85.90
2017-08-29T04:21:11.323Z,86.00
2017-08-29T04:23:38.992Z,86.10
2017-08-29T04:26:06.693Z,85.90
2017-08-29T04:28:34.365Z,85.90
2017-08-29T04:31:02.068Z,86.00
2017-08-29T04:33:30.504Z,86.00
2017-08-29T04:35:58.231Z,85.90
2017-08-29T04:38:25.891Z,86.20
2017-08-29T04:40:53.644Z,86.60
2017-08-29T04:43:22.080Z,87.70
2017-08-29T04:45:49.815Z,87.70
2017-08-29T04:48:17.479Z,88.70
2017-08-29T04:50:45.135Z,88.90
2017-08-29T04:53:12.835Z,88.10
2017-08-29T04:55:40.544Z,87.00
2017-08-29T04:58:08.307Z,86.60
2017-08-29T05:00:36.045Z,86.60
2017-08-29T05:03:03.805Z,87.10
2017-08-29T05:05:31.549Z,87.00
2017-08-29T05:07:59.271Z,87.40
2017-08-29T05:10:26.987Z,88.00
2017-08-29T05:12:54.691Z,87.70
2017-08-29T05:15:22.349Z,87.50
2017-08-29T05:17:50.043Z,87.80
2017-08-29T05:20:17.699Z,86.70
2017-08-29T05:22:45.409Z,85.80
2017-08-29T05:25:13.068Z,86.00
2017-08-29T05:27:40.807Z,86.30
2017-08-29T05:30:09.261Z,86.50
2017-08-29T05:32:36.957Z,86.50
2017-08-29T05:35:04.616Z,86.50
2017-08-29T05:37:32.328Z,86.70
2017-08-29T05:39:59.996Z,86.60
2017-08-29T05:42:27.697Z,85.90
2017-08-29T05:44:55.364Z,85.90
2017-08-29T05:47:23.076Z,85.90
2017-08-29T05:49:50.740Z,86.20
2017-08-29T05:52:18.455Z,86.10
2017-08-29T05:54:46.115Z,87.20
2017-08-29T05:57:13.843Z,86.80
2017-08-29T05:59:41.503Z,86.40
2017-08-29T06:02:09.181Z,86.10
2017-08-29T06:04:36.882Z,86.20
2017-08-29T06:07:04.564Z,85.70
2017-08-29T06:09:32.304Z,84.60
2017-08-29T06:11:59.987Z,84.40
2017-08-29T06:14:27.725Z,84.10
2017-08-29T06:16:55.396Z,84.10
2017-08-29T06:19:23.107Z,83.00
2017-08-29T06:21:50.767Z,82.40
2017-08-29T06:24:19.246Z,82.80
2017-08-29T06:26:46.908Z,82.80
2017-08-29T06:29:14.698Z,81.90
2017-08-29T06:31:42.352Z,81.60
2017-08-29T06:34:10.055Z,81.50
2017-08-29T06:36:38.483Z,80.40
2017-08-29T06:39:06.258Z,80.40
2017-08-29T06:41:33.915Z,79.60
2017-08-29T06:44:01.621Z,79.50
2017-08-29T06:46:29.324Z,79.40
2017-08-29T06:48:57.027Z,79.20
2017-08-29T06:51:24.683Z,78.30
2017-08-29T06:53:52.393Z,78.00
2017-08-29T06:56:20.055Z,78.00
2017-08-29T06:58:47.711Z,77.50
2017-08-29T07:01:15.412Z,76.90
2017-08-29T07:03:43.082Z,77.50
2017-08-29T07:06:10.787Z,77.60
2017-08-29T07:08:38.455Z,76.10
2017-08-29T07:11:06.179Z,76.70
2017-08-29T07:13:33.878Z,75.30
2017-08-29T07:16:01.597Z,75.70
2017-08-29T07:18:29.261Z,75.10
2017-08-29T07:20:56.974Z,75.40
2017-08-29T07:23:24.628Z,74.70
2017-08-29T07:25:52.329Z,73.80
2017-08-29T07:28:19.992Z,73.30
2017-08-29T07:30:47.700Z,73.00
2017-08-29T07:33:15.360Z,71.80
2017-08-29T07:35:43.073Z,73.10
2017-08-29T07:38:10.737Z,73.20
2017-08-29T07:40:38.448Z,71.10
2017-08-29T07:43:06.107Z,70.80
2017-08-29T07:45:33.834Z,69.60
2017-08-29T07:48:01.516Z,68.70
2017-08-29T07:50:29.203Z,68.40
2017-08-29T07:52:56.912Z,67.10
2017-08-29T07:55:24.632Z,65.50
2017-08-29T07:57:52.333Z,66.00
2017-08-29T08:00:20.000Z,64.60
2017-08-29T08:02:47.701Z,65.10
2017-08-29T08:05:15.365Z,64.00
2017-08-29T08:07:43.092Z,63.70
2017-08-29T08:10:10.794Z,63.60
2017-08-29T08:12:38.542Z,64.40
2017-08-29T08:15:06.240Z,63.40
2017-08-29T08:17:34.703Z,63.30
2017-08-29T08:20:02.367Z,63.30
2017-08-29T08:22:30.080Z,63.30
2017-08-29T08:24:57.743Z,63.40
2017-08-29T08:27:25.482Z,62.90
2017-08-29T08:29:53.179Z,63.90
2017-08-29T08:32:20.887Z,61.90
2017-08-29T08:34:48.616Z,61.70
2017-08-29T08:37:16.319Z,61.80
2017-08-29T08:39:43.984Z,61.10
2017-08-29T08:42:11.711Z,62.10
2017-08-29T08:44:39.372Z,61.00
2017-08-29T08:47:07.027Z,61.60
2017-08-29T08:49:34.756Z,62.20
2017-08-29T08:52:02.415Z,62.10
2017-08-29T08:54:30.121Z,62.30
2017-08-29T08:56:57.807Z,60.20
2017-08-29T08:59:25.512Z,60.40
2017-08-29T09:01:53.171Z,60.40
2017-08-29T09:04:20.885Z,62.00
2017-08-29T09:06:48.544Z,59.90
2017-08-29T09:09:16.256Z,58.90
2017-08-29T09:11:43.916Z,58.50
2017-08-29T09:14:11.612Z,58.50
2017-08-29T09:16:39.288Z,57.30
2017-08-29T09:19:07.010Z,57.50
2017-08-29T09:21:35.436Z,56.90
2017-08-29T09:24:03.146Z,56.90
2017-08-29T09:26:30.807Z,55.90
2017-08-29T09:28:58.537Z,58.00
2017-08-29T09:31:26.200Z,57.40
2017-08-29T09:33:53.851Z,56.60
2017-08-29T09:36:21.547Z,56.50
2017-08-29T09:38:49.213Z,56.10
2017-08-29T09:41:17.684Z,55.80
2017-08-29T09:43:45.354Z,55.80
2017-08-29T09:46:13.071Z,55.90
2017-08-29T09:48:40.730Z,54.60
2017-08-29T09:51:08.435Z,54.60
2017-08-29T09:53:36.096Z,55.50
2017-08-29T09:56:03.841Z,55.00
2017-08-29T09:58:31.542Z,56.00
2017-08-29T10:00:59.255Z,56.20
2017-08-29T10:03:26.921Z,56.00
2017-08-29T10:05:54.621Z,52.60
2017-08-29T10:08:22.291Z,53.60
2017-08-29T10:10:49.955Z,52.80
2017-08-29T10:13:17.660Z,52.30
2017-08-29T10:15:45.329Z,53.10
2017-08-29T10:18:13.040Z,52.60
2017-08-29T10:20:40.699Z,52.00
2017-08-29T10:23:08.399Z,51.90
2017-08-29T10:25:36.052Z,51.30
2017-08-29T10:28:03.765Z,53.10
2017-08-29T10:30:31.432Z,52.80
2017-08-29T10:32:59.143Z,51.70
2017-08-29T10:35:26.851Z,53.80
2017-08-29T10:37:54.550Z,51.00
2017-08-29T10:40:22.280Z,51.30
2017-08-29T10:42:49.983Z,52.20
2017-08-29T10:45:17.644Z,52.10
2017-08-29T10:47:45.396Z,50.10
2017-08-29T10:50:13.103Z,49.50
2017-08-29T10:52:40.817Z,50.10
2017-08-29T10:55:08.479Z,49.10
2017-08-29T10:57:36.191Z,50.50
2017-08-29T11:00:03.906Z,48.70
2017-08-29T11:02:31.616Z,48.80
2017-08-29T11:04:59.276Z,50.00
2017-08-29T11:07:26.940Z,48.50
2017-08-29T11:09:54.645Z,48.40
2017-08-29T11:12:23.072Z,48.50
2017-08-29T11:14:50.781Z,48.40
2017-08-29T11:17:18.448Z,48.60
2017-08-29T11:19:46.962Z,47.50
2017-08-29T11:22:14.664Z,47.50
2017-08-29T11:24:42.409Z,49.70
2017-08-29T11:27:10.115Z,47.20
2017-08-29T11:29:37.860Z,49.80
2017-08-29T11:32:05.563Z,47.40
2017-08-29T11:34:33.304Z,46.60
2017-08-29T11:37:01.012Z,47.40
2017-08-29T11:39:28.756Z,47.20
2017-08-29T11:41:56.452Z,47.30
2017-08-29T11:44:24.197Z,47.00
2017-08-29T11:46:51.891Z,47.80
2017-08-29T11:49:19.635Z,47.70
2017-08-29T11:51:47.323Z,46.70
2017-08-29T11:54:15.064Z,46.80
2017-08-29T11:56:42.784Z,46.80
2017-08-29T11:59:10.528Z,47.70
2017-08-29T12:01:38.233Z,47.70
2017-08-29T12:04:05.947Z,45.60
2017-08-29T12:06:33.722Z,45.90
2017-08-29T12:09:01.418Z,45.30
2017-08-29T12:11:29.124Z,47.30
2017-08-29T12:13:56.791Z,45.20
2017-08-29T12:16:24.505Z,44.10
2017-08-29T12:18:52.160Z,43.80
2017-08-29T12:21:19.865Z,43.30
2017-08-29T12:23:47.529Z,43.00
2017-08-29T12:26:15.223Z,43.90
2017-08-29T12:28:42.885Z,42.80
2017-08-29T12:31:10.583Z,43.60
2017-08-29T12:33:38.248Z,43.00
2017-08-29T12:36:06.889Z,42.20
2017-08-29T12:38:34.551Z,42.50
2017-08-29T12:41:02.265Z,43.10
2017-08-29T12:43:29.931Z,45.10
2017-08-29T12:45:57.671Z,43.40
2017-08-29T12:48:25.343Z,43.20
2017-08-29T12:50:53.048Z,43.10
2017-08-29T12:53:20.723Z,43.20
2017-08-29T12:55:48.447Z,41.90
2017-08-29T12:58:16.120Z,43.60
2017-08-29T13:00:43.858Z,41.80
2017-08-29T13:03:11.515Z,43.30
2017-08-29T13:05:39.222Z,44.50
2017-08-29T13:08:06.929Z,41.50
2017-08-29T13:10:34.596Z,43.80
2017-08-29T13:13:02.308Z,41.70
2017-08-29T13:15:30.047Z,44.00
2017-08-29T13:17:57.747Z,43.10
2017-08-29T13:20:25.462Z,43.10
2017-08-29T13:22:53.200Z,41.80
2017-08-29T13:25:20.889Z,42.60
2017-08-29T13:27:48.632Z,42.30
2017-08-29T13:30:16.299Z,42.50
2017-08-29T13:32:44.044Z,41.40
2017-08-29T13:35:11.712Z,42.70
2017-08-29T13:37:39.470Z,42.60
2017-08-29T13:40:07.138Z,43.70
2017-08-29T13:42:34.844Z,43.20
2017-08-29T13:45:02.548Z,42.40
2017-08-29T13:47:30.208Z,40.90
2017-08-29T13:49:57.924Z,42.70
2017-08-29T13:52:25.591Z,42.90
2017-08-29T13:54:53.297Z,40.70
2017-08-29T13:57:20.959Z,41.20
2017-08-29T13:59:48.667Z,42.00
2017-08-29T14:02:16.334Z,42.00
2017-08-29T14:04:44.046Z,41.50
2017-08-29T14:07:11.706Z,40.00
2017-08-29T14:09:39.408Z,41.20
2017-08-29T14:12:07.835Z,39.50
2017-08-29T14:14:35.544Z,39.50
2017-08-29T14:17:03.199Z,40.40
2017-08-29T14:19:30.912Z,42.20
2017-08-29T14:21:58.567Z,40.30
2017-08-29T14:24:26.275Z,40.00
2017-08-29T14:26:53.940Z,40.90
2017-08-29T14:29:21.649Z,41.60
2017-08-29T14:31:49.348Z,39.50
2017-08-29T14:34:17.046Z,40.90
2017-08-29T14:36:44.744Z,39.70
2017-08-29T14:39:12.401Z,41.70
2017-08-29T14:41:40.103Z,41.20
2017-08-29T14:44:07.758Z,40.60
2017-08-29T14:46:47.323Z,40.80
2017-08-29T14:49:15.065Z,39.00
2017-08-29T14:51:42.778Z,39.20
2017-08-29T14:54:10.447Z,41.30
2017-08-29T14:56:38.164Z,39.90
2017-08-29T14:59:05.827Z,39.40
2017-08-29T15:01:33.539Z,40.50
2017-08-29T15:04:01.203Z,38.60
2017-08-29T15:06:28.911Z,40.00
2017-08-29T15:08:56.572Z,39.30
2017-08-29T15:11:24.275Z,41.00
2017-08-29T15:13:51.948Z,39.80
2017-08-29T15:16:19.653Z,40.00
2017-08-29T15:18:47.320Z,40.30
2017-08-29T15:21:15.034Z,40.00
2017-08-29T15:23:42.690Z,40.90
2017-08-29T15:26:10.599Z,39.50
2017-08-29T15:28:38.260Z,39.70
2017-08-29T15:31:05.967Z,41.40
2017-08-29T15:33:33.631Z,40.60
2017-08-29T15:36:01.335Z,41.10
2017-08-29T15:38:28.992Z,41.30
2017-08-29T15:40:56.708Z,42.30
2017-08-29T15:43:24.407Z,42.90
2017-08-29T15:45:52.131Z,42.60
2017-08-29T15:48:19.808Z,42.60
2017-08-29T15:50:47.516Z,42.10
2017-08-29T15:53:15.184Z,43.50
2017-08-29T15:55:42.891Z,43.20
2017-08-29T15:58:10.551Z,43.50
2017-08-29T16:00:38.203Z,44.00
2017-08-29T16:03:06.677Z,43.00
2017-08-29T16:05:34.340Z,43.00
2017-08-29T16:08:02.808Z,45.10
2017-08-29T16:10:30.459Z,45.70
2017-08-29T16:12:58.160Z,44.60
2017-08-29T16:15:25.819Z,44.70
2017-08-29T16:17:53.528Z,44.50
2017-08-29T16:20:21.201Z,46.00
2017-08-29T16:22:48.902Z,45.80
2017-08-29T16:25:16.599Z,45.50
2017-08-29T16:27:44.303Z,45.20
2017-08-29T16:30:12.031Z,45.90
2017-08-29T16:32:39.751Z,45.40
2017-08-29T16:35:07.468Z,45.80
2017-08-29T16:37:35.172Z,46.40
2017-08-29T16:40:02.835Z,47.20
2017-08-29T16:42:30.576Z,46.40
2017-08-29T16:44:58.239Z,46.50
2017-08-29T16:47:25.944Z,47.50
2017-08-29T16:49:53.711Z,47.80
2017-08-29T16:52:21.407Z,48.00
2017-08-29T16:54:49.064Z,48.00
2017-08-29T16:57:17.541Z,48.30
2017-08-29T16:59:45.203Z,48.30
2017-08-29T17:02:12.912Z,47.50
2017-08-29T17:04:40.576Z,47.70
2017-08-29T17:07:08.305Z,48.20
2017-08-29T17:09:35.967Z,48.10
2017-08-29T17:12:03.632Z,48.80
2017-08-29T17:14:31.365Z,48.10
2017-08-29T17:16:59.032Z,47.90
2017-08-29T17:19:27.509Z,49.40
2017-08-29T17:21:55.996Z,51.00
2017-08-29T17:24:23.704Z,50.90
2017-08-29T17:26:51.368Z,52.10
2017-08-29T17:29:19.073Z,51.30
2017-08-29T17:31:46.728Z,51.80
2017-08-29T17:34:14.428Z,52.20
2017-08-29T17:36:42.087Z,52.50
2017-08-29T17:39:09.807Z,52.70
2017-08-29T17:41:37.500Z,52.80
2017-08-29T17:44:05.215Z,54.00
2017-08-29T17:46:32.875Z,54.10
2017-08-29T17:49:00.587Z,54.40
2017-08-29T17:51:28.263Z,55.60
2017-08-29T17:53:55.975Z,56.70
2017-08-29T17:56:23.645Z,58.90
2017-08-29T17:58:51.356Z,59.60
2017-08-29T18:01:19.024Z,60.00
2017-08-29T18:03:46.732Z,60.60
2017-08-29T18:06:14.402Z,61.60
2017-08-29T18:08:42.104Z,62.20
2017-08-29T18:11:09.764Z,62.70
2017-08-29T18:13:37.472Z,64.10
2017-08-29T18:16:05.140Z,65.20
2017-08-29T18:18:32.844Z,65.70
2017-08-29T18:21:00.511Z,65.90
2017-08-29T18:23:28.215Z,66.20
2017-08-29T18:25:55.871Z,66.00
2017-08-29T18:28:23.571Z,66.20
2017-08-29T18:30:51.232Z,66.40
2017-08-29T18:33:18.941Z,66.40
2017-08-29T18:35:46.600Z,67.10
2017-08-29T18:38:14.305Z,67.00
2017-08-29T18:40:41.963Z,67.50
2017-08-29T18:43:09.680Z,68.10
2017-08-29T18:45:37.340Z,68.00
2017-08-29T18:48:05.026Z,67.20
2017-08-29T18:50:32.735Z,67.50
2017-08-29T18:53:00.399Z,68.80
2017-08-29T18:55:28.880Z,69.10
2017-08-29T18:57:56.544Z,69.10
2017-08-29T19:00:24.292Z,69.00
2017-08-29T19:02:52.729Z,69.20
2017-08-29T19:05:20.440Z,69.10
2017-08-29T19:07:48.095Z,69.80
2017-08-29T19:10:16.568Z,71.40
2017-08-29T19:12:44.284Z,71.30
2017-08-29T19:15:11.980Z,71.70
2017-08-29T19:17:39.644Z,71.30
2017-08-29T19:20:07.368Z,70.40
2017-08-29T19:22:35.041Z,70.30
2017-08-29T19:25:02.744Z,71.00
2017-08-29T19:27:31.187Z,72.30
2017-08-29T19:29:58.896Z,72.30
2017-08-29T19:32:26.567Z,72.20
2017-08-29T19:34:54.280Z,72.10
2017-08-29T19:37:21.988Z,71.60
2017-08-29T19:39:49.700Z,71.90
2017-08-29T19:42:17.360Z,72.50
2017-08-29T19:44:45.067Z,72.60
2017-08-29T19:47:12.728Z,72.80
2017-08-29T19:49:40.434Z,73.30
2017-08-29T19:52:08.116Z,73.50
2017-08-29T19:54:35.825Z,74.50
2017-08-29T19:57:03.484Z,74.00
2017-08-29T19:59:31.199Z,74.40
2017-08-29T20:01:58.855Z,73.60
2017-08-29T20:04:27.288Z,73.30
2017-08-29T20:06:54.994Z,73.30
2017-08-29T20:09:22.659Z,73.90
2017-08-29T20:11:50.359Z,74.10
2017-08-29T20:14:18.020Z,74.80
2017-08-29T20:16:45.724Z,74.80
2017-08-29T20:19:13.384Z,75.10
2017-08-29T20:21:41.089Z,74.20
2017-08-29T20:24:08.754Z,74.40
2017-08-29T20:26:36.495Z,74.70
2017-08-29T20:29:04.163Z,74.40
2017-08-29T20:31:31.870Z,74.50
2017-08-29T20:33:59.528Z,75.80
2017-08-29T20:36:27.249Z,76.30
2017-08-29T20:38:54.911Z,77.30
2017-08-29T20:41:22.608Z,78.20
2017-08-29T20:43:50.268Z,77.90
2017-08-29T20:46:17.983Z,78.10
2017-08-29T20:48:45.650Z,77.60
2017-08-29T20:51:13.366Z,76.80
2017-08-29T20:53:41.030Z,77.70
2017-08-29T20:56:08.733Z,78.00
2017-08-29T20:58:36.390Z,78.10
2017-08-29T21:01:04.095Z,78.30
2017-08-29T21:03:31.773Z,77.40
2017-08-29T21:05:59.485Z,77.40
2017-08-29T21:08:27.145Z,77.00
2017-08-29T21:10:54.855Z,77.30
2017-08-29T21:13:22.524Z,77.90
2017-08-29T21:15:50.184Z,78.60
2017-08-29T21:18:17.889Z,78.20
2017-08-29T21:20:45.552Z,78.90
2017-08-29T21:23:13.284Z,79.50
2017-08-29T21:25:40.946Z,80.50
2017-08-29T21:28:08.646Z,80.50
2017-08-29T21:30:36.338Z,79.70
2017-08-29T21:33:04.807Z,80.10
2017-08-29T21:35:32.476Z,80.20
2017-08-29T21:38:00.134Z,80.40
2017-08-29T21:40:27.835Z,80.40
2017-08-29T21:42:55.507Z,80.10
2017-08-29T21:45:23.215Z,80.00
2017-08-29T21:47:50.883Z,79.90
2017-08-29T21:50:18.587Z,80.20
2017-08-29T21:52:46.255Z,82.00
2017-08-29T21:55:13.959Z,82.40
2017-08-29T21:57:41.611Z,82.40
2017-08-29T22:00:09.323Z,82.20
2017-08-29T22:02:36.986Z,82.70
2017-08-29T22:05:04.731Z,83.20
2017-08-29T22:07:32.389Z,83.50
2017-08-29T22:10:00.091Z,83.60
2017-08-29T22:12:27.759Z,83.20
2017-08-29T22:14:55.455Z,82.80
2017-08-29T22:17:23.118Z,81.30
2017-08-29T22:19:50.776Z,81.10
2017-08-29T22:22:18.484Z,81.10
2017-08-29T22:24:46.151Z,82.00
2017-08-29T22:27:13.881Z,82.10
2017-08-29T22:29:41.545Z,81.70
2017-08-29T22:32:09.247Z,81.30
2017-08-29T22:34:36.907Z,80.90
2017-08-29T22:39:38.501Z,81.60
2017-08-29T22:42:06.224Z,82.20
2017-08-29T22:44:33.891Z,82.20
2017-08-29T22:47:01.586Z,81.90
2017-08-29T22:49:29.248Z,81.90
2017-08-29T22:51:56.963Z,82.70
2017-08-29T22:54:24.644Z,83.10
2017-08-29T22:56:52.350Z,82.90
2017-08-29T22:59:20.011Z,83.40
2017-08-29T23:01:47.722Z,83.60
2017-08-29T23:04:15.393Z,83.20
2017-08-29T23:06:43.123Z,83.10
2017-08-29T23:09:10.812Z,83.20
2017-08-29T23:11:38.528Z,83.50
2017-08-29T23:14:06.191Z,83.70
2017-08-29T23:16:33.903Z,83.90
2017-08-29T23:19:01.563Z,84.60
2017-08-29T23:21:29.282Z,83.90
2017-08-29T23:23:56.935Z,83.50
2017-08-29T23:26:24.671Z,83.30
2017-08-29T23:28:52.339Z,82.60
2017-08-29T23:31:20.038Z,82.60
2017-08-29T23:33:47.688Z,82.90
2017-08-29T23:36:15.432Z,83.20
2017-08-29T23:38:43.103Z,83.50
2017-08-29T23:41:10.771Z,84.90
2017-08-29T23:43:38.488Z,85.50
2017-08-29T23:46:06.160Z,86.10
2017-08-29T23:48:33.885Z,87.00
2017-08-29T23:51:01.552Z,86.20
2017-08-29T23:53:29.256Z,85.80
2017-08-29T23:55:56.928Z,86.20
2017-08-29T23:58:24.639Z,87.10
